createdAt,value
2023-02-27T00:00:43.251Z,22.04
2023-02-27T00:01:43.251Z,22.04
2023-02-27T00:02:43.320Z,22.04
2023-02-27T00:03:43.320Z,22.04
2023-02-27T00:04:43.214Z,22.04
2023-02-27T00:05:43.206Z,22.04
2023-02-27T00:55:38.708Z,21.61
2023-02-27T00:56:39.681Z,21.82
2023-02-27T00:57:39.700Z,21.88
2023-02-27T00:58:39.658Z,21.92
2023-02-27T00:59:39.652Z,21.96
2023-02-27T01:00:39.682Z,21.97
2023-02-27T01:01:39.627Z,21.99
2023-02-27T01:02:39.636Z,22.00
2023-02-27T01:03:39.615Z,22.01
2023-02-27T01:04:39.606Z,22.02
2023-02-27T01:05:39.602Z,22.02
2023-02-27T01:06:39.592Z,22.02
2023-02-27T01:07:39.581Z,22.02
2023-02-27T01:08:39.573Z,22.03
2023-02-27T01:09:39.572Z,22.03
2023-02-27T01:10:39.561Z,22.03
2023-02-27T01:11:39.573Z,22.04
2023-02-27T01:12:39.544Z,22.03
2023-02-27T01:13:39.567Z,22.03
2023-02-27T01:14:39.520Z,22.03
2023-02-27T01:15:39.521Z,22.03
2023-02-27T01:16:39.539Z,22.02
2023-02-27T01:17:39.508Z,22.03
2023-02-27T01:18:39.488Z,22.02
2023-02-27T01:19:39.483Z,22.03
2023-02-27T01:20:39.477Z,22.02
2023-02-27T01:21:39.462Z,22.03
2023-02-27T01:22:39.455Z,22.03
2023-02-27T01:23:39.448Z,22.02
2023-02-27T01:24:39.440Z,22.03
2023-02-27T01:25:39.428Z,22.03
2023-02-27T01:26:39.420Z,22.03
2023-02-27T01:27:39.473Z,22.02
2023-02-27T01:28:39.404Z,22.02
2023-02-27T01:29:39.398Z,22.03
2023-02-27T01:30:39.431Z,22.02
2023-02-27T01:31:39.411Z,22.03
2023-02-27T01:32:39.414Z,22.02
2023-02-27T01:33:39.368Z,22.02
2023-02-27T01:34:39.354Z,22.02
2023-02-27T01:35:39.350Z,22.03
2023-02-27T01:36:39.330Z,22.03
2023-02-27T01:37:39.341Z,22.02
2023-02-27T01:38:39.320Z,22.02
2023-02-27T01:39:39.310Z,22.03
2023-02-27T01:40:39.361Z,22.02
2023-02-27T01:41:39.291Z,22.02
2023-02-27T01:42:39.288Z,22.02
2023-02-27T01:43:39.388Z,22.02
2023-02-27T01:44:39.267Z,22.03
2023-02-27T01:45:39.327Z,22.02
2023-02-27T01:46:39.257Z,22.02
2023-02-27T01:47:39.242Z,22.02
2023-02-27T01:48:39.233Z,22.02
2023-02-27T01:49:39.227Z,22.02
2023-02-27T01:50:39.210Z,22.02
2023-02-27T01:51:39.202Z,22.02
2023-02-27T01:52:39.202Z,22.02
2023-02-27T01:53:39.181Z,22.01
2023-02-27T01:54:39.180Z,22.01
2023-02-27T01:55:39.181Z,22.01
2023-02-27T01:56:39.191Z,22.01
2023-02-27T01:57:39.151Z,22.02
2023-02-27T01:58:39.142Z,22.02
2023-02-27T01:59:39.155Z,22.02
2023-02-27T02:00:39.131Z,22.02
2023-02-27T02:01:39.191Z,22.02
2023-02-27T02:02:39.108Z,22.02
2023-02-27T02:03:39.107Z,22.02
2023-02-27T02:04:39.093Z,22.01
2023-02-27T02:05:39.079Z,22.01
2023-02-27T02:06:39.071Z,22.01
2023-02-27T02:07:39.057Z,22.01
2023-02-27T02:08:39.053Z,22.01
2023-02-27T02:09:39.050Z,22.02
2023-02-27T02:10:39.033Z,22.02
2023-02-27T02:11:39.036Z,22.01
2023-02-27T02:12:39.023Z,22.02
2023-02-27T02:13:39.007Z,22.01
2023-02-27T02:14:38.997Z,22.02
2023-02-27T02:15:39.053Z,22.01
2023-02-27T02:16:39.054Z,22.01
2023-02-27T02:17:38.980Z,22.01
2023-02-27T02:18:38.966Z,22.01
2023-02-27T02:19:38.993Z,22.01
2023-02-27T02:20:38.999Z,22.01
2023-02-27T02:21:38.937Z,22.01
2023-02-27T02:22:38.935Z,22.01
2023-02-27T02:23:38.933Z,22.00
2023-02-27T02:24:38.908Z,22.01
2023-02-27T02:25:38.906Z,22.02
2023-02-27T02:26:38.916Z,22.01
2023-02-27T02:27:38.884Z,22.01
2023-02-27T02:28:38.885Z,22.01
2023-02-27T02:29:38.870Z,22.01
2023-02-27T02:30:38.965Z,22.01
2023-02-27T02:31:39.055Z,22.01
2023-02-27T02:32:38.841Z,22.01
2023-02-27T02:33:38.838Z,22.01
2023-02-27T02:34:38.821Z,22.02
2023-02-27T02:35:38.816Z,22.01
2023-02-27T02:36:38.809Z,22.01
2023-02-27T02:37:38.793Z,22.02
2023-02-27T02:38:38.787Z,22.01
2023-02-27T02:39:38.798Z,22.01
2023-02-27T02:40:38.771Z,22.02
2023-02-27T02:41:38.760Z,22.01
2023-02-27T02:42:38.755Z,22.01
2023-02-27T02:43:38.742Z,22.00
2023-02-27T02:44:38.744Z,22.00
2023-02-27T02:45:38.726Z,22.00
2023-02-27T02:46:38.721Z,22.01
2023-02-27T02:47:38.732Z,22.01
2023-02-27T02:48:38.700Z,22.01
2023-02-27T02:49:38.692Z,22.01
2023-02-27T02:50:38.711Z,22.01
2023-02-27T02:51:38.677Z,22.01
2023-02-27T02:52:38.662Z,22.00
2023-02-27T02:53:38.655Z,22.00
2023-02-27T02:54:38.650Z,22.00
2023-02-27T02:55:38.646Z,22.01
2023-02-27T02:56:38.636Z,22.01
2023-02-27T02:57:38.625Z,22.00
2023-02-27T02:58:38.611Z,22.00
2023-02-27T02:59:38.602Z,22.00
2023-02-27T03:00:38.596Z,22.00
2023-02-27T03:01:38.612Z,22.00
2023-02-27T03:02:38.588Z,22.00
2023-02-27T03:03:38.596Z,22.00
2023-02-27T03:04:38.592Z,22.00
2023-02-27T03:05:38.549Z,22.00
2023-02-27T03:06:38.545Z,21.99
2023-02-27T03:07:38.574Z,22.00
2023-02-27T03:08:38.523Z,21.99
2023-02-27T03:09:38.520Z,21.99
2023-02-27T03:10:38.515Z,21.99
2023-02-27T03:11:38.495Z,21.99
2023-02-27T03:12:38.490Z,21.99
2023-02-27T03:13:38.479Z,21.99
2023-02-27T03:14:38.471Z,21.99
2023-02-27T03:15:38.498Z,21.99
2023-02-27T03:16:38.451Z,21.99
2023-02-27T03:17:38.461Z,21.99
2023-02-27T03:18:38.435Z,22.00
2023-02-27T03:19:38.454Z,21.99
2023-02-27T03:20:38.416Z,22.00
2023-02-27T03:21:38.412Z,21.99
2023-02-27T03:22:38.400Z,21.99
2023-02-27T03:23:38.397Z,22.00
2023-02-27T03:24:38.382Z,21.99
2023-02-27T03:25:38.382Z,21.99
2023-02-27T03:26:38.379Z,21.99
2023-02-27T03:27:38.354Z,21.99
2023-02-27T03:28:38.343Z,21.99
2023-02-27T03:29:38.339Z,21.99
2023-02-27T03:30:38.375Z,22.00
2023-02-27T03:31:38.409Z,21.99
2023-02-27T03:32:38.316Z,21.99
2023-02-27T03:33:38.294Z,21.99
2023-02-27T03:34:38.289Z,21.99
2023-02-27T03:35:38.314Z,21.98
2023-02-27T03:36:38.269Z,21.99
2023-02-27T03:37:38.260Z,21.99
2023-02-27T03:38:38.258Z,21.99
2023-02-27T03:39:38.252Z,21.99
2023-02-27T03:40:38.305Z,21.99
2023-02-27T03:41:38.235Z,21.99
2023-02-27T03:42:38.213Z,21.99
2023-02-27T03:43:38.206Z,21.99
2023-02-27T03:44:38.207Z,21.98
2023-02-27T03:45:38.196Z,21.99
2023-02-27T03:46:38.224Z,21.99
2023-02-27T03:47:38.177Z,21.99
2023-02-27T03:48:38.163Z,21.99
2023-02-27T03:49:38.155Z,21.99
2023-02-27T03:50:38.150Z,21.99
2023-02-27T03:51:38.169Z,21.98
2023-02-27T03:52:38.128Z,21.98
2023-02-27T03:53:38.121Z,21.99
2023-02-27T03:54:38.114Z,21.99
2023-02-27T03:55:38.105Z,21.99
2023-02-27T03:56:38.100Z,21.99
2023-02-27T03:57:38.148Z,21.99
2023-02-27T03:58:38.078Z,21.98
2023-02-27T03:59:38.067Z,21.99
2023-02-27T04:00:38.064Z,21.99
2023-02-27T04:01:38.213Z,21.99
2023-02-27T04:02:38.115Z,21.98
2023-02-27T04:03:38.039Z,21.99
2023-02-27T04:04:38.021Z,21.99
2023-02-27T04:05:38.016Z,21.98
2023-02-27T04:06:38.005Z,21.99
2023-02-27T04:07:38.031Z,21.99
2023-02-27T04:08:38.008Z,21.98
2023-02-27T04:09:37.985Z,21.98
2023-02-27T04:10:37.983Z,21.99
2023-02-27T04:11:37.962Z,21.99
2023-02-27T04:12:37.955Z,21.99
2023-02-27T04:13:37.945Z,21.98
2023-02-27T04:14:37.937Z,21.99
2023-02-27T04:15:37.932Z,21.98
2023-02-27T04:16:37.920Z,21.98
2023-02-27T04:17:37.908Z,21.98
2023-02-27T04:18:37.906Z,21.98
2023-02-27T04:20:37.880Z,21.97
2023-02-27T04:21:37.873Z,21.98
2023-02-27T04:22:37.865Z,21.97
2023-02-27T04:23:37.996Z,21.98
2023-02-27T04:24:37.854Z,21.98
2023-02-27T04:25:37.839Z,21.98
2023-02-27T04:26:37.832Z,21.98
2023-02-27T04:27:37.828Z,21.97
2023-02-27T04:28:37.818Z,21.97
2023-02-27T04:29:37.814Z,21.98
2023-02-27T04:30:37.800Z,21.98
2023-02-27T04:31:37.914Z,21.98
2023-02-27T04:32:37.958Z,21.98
2023-02-27T04:33:37.772Z,21.98
2023-02-27T04:34:37.769Z,21.98
2023-02-27T04:35:37.758Z,21.98
2023-02-27T04:36:37.753Z,21.97
2023-02-27T04:37:37.739Z,21.97
2023-02-27T04:38:37.734Z,21.98
2023-02-27T04:39:37.753Z,21.97
2023-02-27T04:40:37.717Z,21.98
2023-02-27T04:41:37.705Z,21.97
2023-02-27T04:42:37.704Z,21.97
2023-02-27T04:43:37.698Z,21.97
2023-02-27T04:44:37.688Z,21.96
2023-02-27T04:45:37.737Z,21.96
2023-02-27T04:46:37.668Z,21.97
2023-02-27T04:47:37.662Z,21.96
2023-02-27T04:48:37.648Z,21.97
2023-02-27T04:49:37.664Z,21.97
2023-02-27T04:50:37.650Z,21.97
2023-02-27T04:51:37.646Z,21.97
2023-02-27T04:52:37.613Z,21.97
2023-02-27T04:53:37.606Z,21.97
2023-02-27T04:54:37.591Z,21.97
2023-02-27T04:55:37.721Z,21.97
2023-02-27T04:56:37.581Z,21.97
2023-02-27T04:57:37.573Z,21.97
2023-02-27T04:58:37.559Z,21.96
2023-02-27T04:59:37.560Z,21.96
2023-02-27T05:00:37.542Z,21.96
2023-02-27T05:01:37.596Z,21.96
2023-02-27T05:02:37.640Z,21.96
2023-02-27T05:03:37.515Z,21.96
2023-02-27T05:04:37.510Z,21.96
2023-02-27T05:05:37.494Z,21.95
2023-02-27T05:06:37.486Z,21.96
2023-02-27T05:07:37.496Z,21.96
2023-02-27T05:08:37.469Z,21.96
2023-02-27T05:09:37.459Z,21.97
2023-02-27T05:10:37.451Z,21.97
2023-02-27T05:11:37.469Z,21.98
2023-02-27T05:12:37.443Z,21.97
2023-02-27T05:13:37.431Z,21.97
2023-02-27T05:14:37.424Z,21.97
2023-02-27T05:15:37.470Z,21.96
2023-02-27T05:16:37.546Z,21.97
2023-02-27T05:17:37.453Z,21.97
2023-02-27T05:18:37.384Z,21.97
2023-02-27T05:19:37.373Z,21.96
2023-02-27T05:20:37.422Z,21.97
2023-02-27T05:21:37.358Z,21.96
2023-02-27T05:22:37.362Z,21.96
2023-02-27T05:23:37.337Z,21.96
2023-02-27T05:24:37.331Z,21.96
2023-02-27T05:25:37.327Z,21.96
2023-02-27T05:26:37.314Z,21.96
2023-02-27T05:27:37.332Z,21.95
2023-02-27T05:28:37.294Z,21.95
2023-02-27T05:29:37.292Z,21.96
2023-02-27T05:30:37.287Z,21.95
2023-02-27T05:31:37.294Z,21.95
2023-02-27T05:32:37.351Z,21.95
2023-02-27T05:33:37.256Z,21.96
2023-02-27T05:34:37.242Z,21.96
2023-02-27T05:35:37.265Z,21.96
2023-02-27T05:36:37.227Z,21.96
2023-02-27T05:37:37.222Z,21.96
2023-02-27T05:38:37.204Z,21.95
2023-02-27T05:39:37.198Z,21.95
2023-02-27T05:40:37.193Z,21.95
2023-02-27T05:41:37.183Z,21.96
2023-02-27T05:42:37.170Z,21.95
2023-02-27T05:43:37.190Z,21.95
2023-02-27T05:44:37.149Z,21.95
2023-02-27T05:45:37.213Z,21.96
2023-02-27T05:46:37.140Z,21.95
2023-02-27T05:47:37.129Z,21.96
2023-02-27T05:48:37.116Z,21.95
2023-02-27T05:49:37.118Z,21.96
2023-02-27T05:50:37.101Z,21.96
2023-02-27T05:51:37.092Z,21.96
2023-02-27T05:52:37.083Z,21.95
2023-02-27T05:53:37.074Z,21.96
2023-02-27T05:54:37.065Z,21.96
2023-02-27T05:55:37.059Z,21.96
2023-02-27T05:56:37.056Z,21.95
2023-02-27T05:57:37.049Z,21.95
2023-02-27T05:58:37.032Z,21.95
2023-02-27T05:59:37.047Z,21.95
2023-02-27T06:00:37.013Z,21.95
2023-02-27T06:01:37.000Z,21.95
2023-02-27T06:02:37.028Z,21.94
2023-02-27T06:03:37.019Z,21.95
2023-02-27T06:04:36.982Z,21.94
2023-02-27T06:05:36.974Z,21.94
2023-02-27T06:06:36.963Z,21.94
2023-02-27T06:07:36.957Z,21.94
2023-02-27T06:08:36.955Z,21.94
2023-02-27T06:09:36.941Z,21.95
2023-02-27T06:10:36.930Z,21.95
2023-02-27T06:11:36.927Z,21.95
2023-02-27T06:12:36.913Z,21.94
2023-02-27T06:13:36.912Z,21.94
2023-02-27T06:14:36.892Z,21.94
2023-02-27T06:15:36.963Z,21.95
2023-02-27T06:16:36.907Z,21.95
2023-02-27T06:17:36.868Z,21.94
2023-02-27T06:18:37.034Z,21.95
2023-02-27T06:19:36.853Z,21.95
2023-02-27T06:20:36.844Z,21.95
2023-02-27T06:21:36.832Z,21.95
2023-02-27T06:22:37.026Z,21.96
2023-02-27T06:23:36.822Z,21.96
2023-02-27T06:24:36.817Z,21.97
2023-02-27T06:25:36.802Z,21.97
2023-02-27T06:26:36.836Z,21.98
2023-02-27T06:27:36.781Z,21.98
2023-02-27T06:28:36.771Z,21.99
2023-02-27T06:29:36.770Z,22.00
2023-02-27T06:30:36.854Z,22.00
2023-02-27T06:31:37.105Z,21.99
2023-02-27T06:32:36.746Z,22.00
2023-02-27T06:33:36.734Z,22.00
2023-02-27T06:34:36.721Z,22.00
2023-02-27T06:35:36.732Z,22.00
2023-02-27T06:36:37.012Z,22.00
2023-02-27T06:37:36.708Z,22.00
2023-02-27T06:38:37.014Z,22.01
2023-02-27T06:39:36.674Z,22.01
2023-02-27T06:40:36.659Z,22.01
2023-02-27T06:41:36.660Z,22.01
2023-02-27T06:42:36.657Z,22.01
2023-02-27T06:43:37.177Z,22.01
2023-02-27T06:44:36.632Z,22.01
2023-02-27T06:45:36.620Z,22.02
2023-02-27T06:46:36.684Z,22.02
2023-02-27T06:47:36.626Z,22.02
2023-02-27T06:48:36.589Z,22.03
2023-02-27T06:49:37.031Z,22.03
2023-02-27T06:50:36.600Z,22.04
2023-02-27T06:51:36.604Z,22.05
2023-02-27T06:52:36.561Z,22.05
2023-02-27T06:53:36.583Z,22.05
2023-02-27T06:55:36.573Z,22.08
2023-02-27T06:56:36.526Z,22.10
2023-02-27T06:57:36.527Z,22.10
2023-02-27T06:58:36.504Z,22.12
2023-02-27T06:59:36.526Z,22.11
2023-02-27T07:00:40.246Z,22.11
2023-02-27T07:01:36.488Z,22.11
2023-02-27T07:02:36.466Z,22.11
2023-02-27T07:03:36.549Z,22.11
2023-02-27T07:04:52.131Z,22.10
2023-02-27T07:05:39.640Z,22.09
2023-02-27T07:07:32.870Z,22.08
2023-02-27T07:07:39.758Z,22.07
2023-02-27T07:08:36.528Z,22.07
2023-02-27T07:09:36.406Z,22.07
2023-02-27T07:10:36.532Z,22.07
2023-02-27T07:11:36.396Z,22.08
2023-02-27T07:12:36.381Z,22.07
2023-02-27T07:13:36.378Z,22.07
2023-02-27T07:14:36.528Z,22.07
2023-02-27T07:15:36.412Z,22.06
2023-02-27T07:16:36.346Z,22.07
2023-02-27T07:17:36.344Z,22.07
2023-02-27T07:18:36.334Z,22.07
2023-02-27T07:19:36.364Z,22.07
2023-02-27T07:20:36.586Z,22.06
2023-02-27T07:21:36.326Z,22.06
2023-02-27T07:22:36.346Z,22.07
2023-02-27T07:23:36.292Z,22.06
2023-02-27T07:24:36.537Z,22.06
2023-02-27T07:25:36.591Z,22.06
2023-02-27T07:26:36.670Z,22.06
2023-02-27T07:27:36.267Z,22.06
2023-02-27T07:28:36.593Z,22.06
2023-02-27T07:29:36.562Z,22.06
2023-02-27T07:30:36.262Z,22.06
2023-02-27T07:31:36.239Z,22.06
2023-02-27T07:32:36.220Z,22.05
2023-02-27T07:33:36.238Z,22.05
2023-02-27T07:34:36.197Z,22.05
2023-02-27T07:35:36.243Z,22.05
2023-02-27T07:36:36.180Z,22.05
2023-02-27T07:37:36.172Z,22.06
2023-02-27T07:38:36.153Z,22.06
2023-02-27T07:39:36.160Z,22.06
2023-02-27T07:40:36.137Z,22.05
2023-02-27T07:41:36.137Z,22.06
2023-02-27T07:42:36.146Z,22.06
2023-02-27T07:43:36.128Z,22.05
2023-02-27T07:44:36.909Z,22.05
2023-02-27T07:45:36.100Z,22.05
2023-02-27T07:46:36.277Z,22.06
2023-02-27T07:47:36.610Z,22.06
2023-02-27T07:48:36.081Z,22.07
2023-02-27T07:49:36.548Z,22.06
2023-02-27T07:50:36.074Z,22.06
2023-02-27T07:51:36.075Z,22.06
2023-02-27T07:52:36.048Z,22.06
2023-02-27T07:53:36.036Z,22.06
2023-02-27T07:54:36.019Z,22.07
2023-02-27T07:55:36.241Z,22.07
2023-02-27T07:56:36.004Z,22.06
2023-02-27T07:57:35.997Z,22.07
2023-02-27T07:58:35.993Z,22.06
2023-02-27T07:59:36.054Z,22.07
2023-02-27T08:00:35.978Z,22.06
2023-02-27T08:01:36.066Z,22.07
2023-02-27T08:02:36.411Z,22.07
2023-02-27T08:03:35.952Z,22.06
2023-02-27T08:04:36.000Z,22.06
2023-02-27T08:05:36.063Z,22.06
2023-02-27T08:06:35.921Z,22.06
2023-02-27T08:07:35.938Z,22.07
2023-02-27T08:08:35.920Z,22.06
2023-02-27T08:09:35.921Z,22.07
2023-02-27T08:10:36.090Z,22.07
2023-02-27T08:11:35.953Z,22.07
2023-02-27T08:12:36.079Z,22.07
2023-02-27T08:13:59.579Z,22.07
2023-02-27T08:14:36.078Z,22.06
2023-02-27T08:15:35.843Z,22.06
2023-02-27T08:16:35.927Z,22.06
2023-02-27T08:17:35.816Z,22.07
2023-02-27T08:18:35.815Z,22.07
2023-02-27T08:19:36.065Z,22.07
2023-02-27T08:20:35.868Z,22.08
2023-02-27T08:21:35.838Z,22.08
2023-02-27T08:22:35.774Z,22.08
2023-02-27T08:23:35.800Z,22.08
2023-02-27T08:24:36.076Z,22.08
2023-02-27T08:25:35.751Z,22.08
2023-02-27T08:26:36.250Z,22.08
2023-02-27T08:27:35.943Z,22.08
2023-02-27T08:28:36.110Z,22.08
2023-02-27T08:29:36.166Z,22.08
2023-02-27T08:30:35.978Z,22.08
2023-02-27T08:31:36.273Z,22.08
2023-02-27T08:32:35.810Z,22.09
2023-02-27T08:33:35.698Z,22.09
2023-02-27T08:34:35.676Z,22.09
2023-02-27T08:36:36.072Z,22.09
2023-02-27T08:37:35.889Z,22.11
2023-02-27T08:38:36.103Z,22.11
2023-02-27T08:39:35.653Z,22.14
2023-02-27T08:40:36.069Z,22.16
2023-02-27T08:41:35.608Z,22.18
2023-02-27T08:42:35.618Z,22.20
2023-02-27T08:43:36.081Z,22.20
2023-02-27T08:44:35.605Z,22.22
2023-02-27T08:45:35.597Z,22.25
2023-02-27T08:46:35.563Z,22.28
2023-02-27T08:47:35.663Z,22.30
2023-02-27T08:48:35.540Z,22.31
2023-02-27T08:49:35.586Z,22.33
2023-02-27T08:50:35.583Z,22.34
2023-02-27T08:51:35.857Z,22.37
2023-02-27T08:52:35.514Z,22.38
2023-02-27T08:53:35.504Z,22.40
2023-02-27T08:54:35.862Z,22.42
2023-02-27T08:55:35.513Z,22.43
2023-02-27T08:56:35.469Z,22.44
2023-02-27T08:57:35.536Z,22.45
2023-02-27T08:58:35.444Z,22.45
2023-02-27T08:59:35.576Z,22.46
2023-02-27T09:00:35.575Z,22.47
2023-02-27T09:01:35.427Z,22.48
2023-02-27T09:02:35.464Z,22.49
2023-02-27T09:03:35.406Z,22.50
2023-02-27T09:04:35.397Z,22.51
2023-02-27T09:05:35.491Z,22.51
2023-02-27T09:06:35.382Z,22.51
2023-02-27T09:07:36.364Z,22.52
2023-02-27T09:08:35.585Z,22.53
2023-02-27T09:09:35.355Z,22.52
2023-02-27T09:10:35.353Z,22.53
2023-02-27T09:11:38.228Z,22.55
2023-02-27T09:12:35.331Z,22.54
2023-02-27T09:13:35.580Z,22.56
2023-02-27T09:14:35.309Z,22.57
2023-02-27T09:15:35.299Z,22.58
2023-02-27T09:16:35.671Z,22.59
2023-02-27T09:17:35.283Z,22.58
2023-02-27T09:18:35.287Z,22.59
2023-02-27T09:19:35.284Z,22.61
2023-02-27T09:20:35.615Z,22.61
2023-02-27T09:21:35.250Z,22.61
2023-02-27T09:22:35.236Z,22.62
2023-02-27T09:23:35.591Z,22.63
2023-02-27T09:24:35.226Z,22.63
2023-02-27T09:25:35.218Z,22.64
2023-02-27T09:26:45.012Z,22.64
2023-02-27T09:27:35.219Z,22.64
2023-02-27T09:28:35.198Z,22.64
2023-02-27T09:29:35.192Z,22.64
2023-02-27T09:30:35.164Z,22.66
2023-02-27T09:31:35.978Z,22.67
2023-02-27T09:32:35.436Z,22.67
2023-02-27T09:33:35.150Z,22.68
2023-02-27T09:34:35.139Z,22.68
2023-02-27T09:35:35.145Z,22.68
2023-02-27T09:36:35.593Z,22.68
2023-02-27T09:37:35.104Z,22.69
2023-02-27T09:38:35.874Z,22.70
2023-02-27T09:39:35.091Z,22.70
2023-02-27T09:40:35.151Z,22.71
2023-02-27T09:41:35.090Z,22.71
2023-02-27T09:42:35.092Z,22.71
2023-02-27T09:43:35.078Z,22.72
2023-02-27T09:44:45.592Z,22.72
2023-02-27T09:45:35.065Z,22.71
2023-02-27T09:46:35.133Z,22.72
2023-02-27T09:48:35.427Z,22.74
2023-02-27T09:49:35.100Z,22.74
2023-02-27T09:54:35.097Z,21.40
2023-02-27T09:56:35.166Z,21.13
2023-02-27T10:00:35.097Z,20.99
2023-02-27T10:01:35.099Z,20.99
2023-02-27T10:06:36.098Z,20.99
2023-02-27T10:09:35.115Z,21.00
2023-02-27T10:11:35.136Z,21.00
2023-02-27T10:14:36.239Z,20.98
2023-02-27T10:19:35.733Z,20.96
2023-02-27T10:21:35.114Z,21.11
2023-02-27T10:26:35.118Z,21.56
2023-02-27T10:27:35.119Z,21.64
2023-02-27T10:29:35.119Z,21.78
2023-02-27T10:33:35.631Z,22.01
2023-02-27T10:34:35.367Z,22.03
2023-02-27T10:35:42.060Z,22.04
2023-02-27T10:36:37.982Z,22.06
2023-02-27T10:40:37.747Z,22.15
2023-02-27T11:07:37.821Z,22.45
2023-02-27T11:12:35.296Z,22.56
2023-02-27T11:14:35.284Z,22.58
2023-02-27T11:26:37.369Z,22.45
2023-02-27T12:06:05.649Z,22.43
